sensor_id;sensor_type;location;lat;lon;timestamp;temperature;humidity
43607;DHT22;29197;44.788;10.366;2023-05-17T13:05:44;17.70;99.90
43607;DHT22;29197;44.788;10.366;2023-05-17T13:08:33;17.80;99.90
43607;DHT22;29197;44.788;10.366;2023-05-17T13:11:24;17.70;99.90
43607;DHT22;29197;44.788;10.366;2023-05-17T13:14:13;17.70;99.90
43607;DHT22;29197;44.788;10.366;2023-05-17T13:17:02;17.80;99.90
43607;DHT22;29197;44.788;10.366;2023-05-17T13:19:50;17.80;99.90
43607;DHT22;29197;44.788;10.366;2023-05-17T13:22:44;17.70;99.90
43607;DHT22;29197;44.788;10.366;2023-05-17T13:25:33;17.70;99.90
43607;DHT22;29197;44.788;10.366;2023-05-17T13:28:22;17.80;99.90
43607;DHT22;29197;44.788;10.366;2023-05-17T13:31:12;17.80;99.90
43607;DHT22;29197;44.788;10.366;2023-05-17T13:34:01;17.80;99.90
43607;DHT22;29197;44.788;10.366;2023-05-17T13:36:49;17.70;99.90
43607;DHT22;29197;44.788;10.366;2023-05-17T13:39:39;17.70;99.90
43607;DHT22;29197;44.788;10.366;2023-05-17T13:42:28;17.80;99.90
43607;DHT22;29197;44.788;10.366;2023-05-17T13:45:18;17.80;99.90
43607;DHT22;29197;44.788;10.366;2023-05-17T13:48:06;17.70;99.90
43607;DHT22;29197;44.788;10.366;2023-05-17T13:50:55;17.60;99.90
43607;DHT22;29197;44.788;10.366;2023-05-17T13:53:44;17.60;99.90
43607;DHT22;29197;44.788;10.366;2023-05-17T13:56:34;17.60;99.90
43607;DHT22;29197;44.788;10.366;2023-05-17T13:59:22;17.60;99.90
43607;DHT22;29197;44.788;10.366;2023-05-17T14:02:11;17.60;99.90
43607;DHT22;29197;44.788;10.366;2023-05-17T14:04:59;17.50;99.90
43607;DHT22;29197;44.788;10.366;2023-05-17T14:07:48;17.50;99.90
43607;DHT22;29197;44.788;10.366;2023-05-17T14:10:37;17.50;99.90
43607;DHT22;29197;44.788;10.366;2023-05-17T14:13:27;17.30;99.90
43607;DHT22;29197;44.788;10.366;2023-05-17T14:16:16;17.20;99.90
43607;DHT22;29197;44.788;10.366;2023-05-17T14:19:04;17.20;99.90
43607;DHT22;29197;44.788;10.366;2023-05-17T14:21:53;17.20;99.90
43607;DHT22;29197;44.788;10.366;2023-05-17T14:24:41;17.20;99.90
43607;DHT22;29197;44.788;10.366;2023-05-17T14:27:30;17.30;99.90
43607;DHT22;29197;44.788;10.366;2023-05-17T14:30:20;17.40;99.90
43607;DHT22;29197;44.788;10.366;2023-05-17T14:33:08;17.40;99.90
43607;DHT22;29197;44.788;10.366;2023-05-17T14:35:57;17.40;99.90
43607;DHT22;29197;44.788;10.366;2023-05-17T14:38:46;17.30;99.90
43607;DHT22;29197;44.788;10.366;2023-05-17T14:41:34;17.20;99.90
43607;DHT22;29197;44.788;10.366;2023-05-17T14:44:25;17.20;99.90
43607;DHT22;29197;44.788;10.366;2023-05-17T14:47:15;17.20;99.90
43607;DHT22;29197;44.788;10.366;2023-05-17T14:50:04;17.30;99.90
43607;DHT22;29197;44.788;10.366;2023-05-17T14:52:53;17.40;99.90
43607;DHT22;29197;44.788;10.366;2023-05-17T14:55:42;17.50;99.90
43607;DHT22;29197;44.788;10.366;2023-05-17T14:58:31;17.50;99.90
43607;DHT22;29197;44.788;10.366;2023-05-17T15:01:19;17.50;99.90
43607;DHT22;29197;44.788;10.366;2023-05-17T15:04:09;17.50;99.90
43607;DHT22;29197;44.788;10.366;2023-05-17T15:06:58;17.40;99.90
43607;DHT22;29197;44.788;10.366;2023-05-17T15:09:46;17.40;99.90
43607;DHT22;29197;44.788;10.366;2023-05-17T15:12:35;17.40;99.90
43607;DHT22;29197;44.788;10.366;2023-05-17T15:15:23;17.50;99.90
43607;DHT22;29197;44.788;10.366;2023-05-17T15:18:12;17.50;99.90
43607;DHT22;29197;44.788;10.366;2023-05-17T15:21:02;17.40;99.90
43607;DHT22;29197;44.788;10.366;2023-05-17T15:23:51;17.50;99.90
43607;DHT22;29197;44.788;10.366;2023-05-17T15:26:39;17.40;99.90
43607;DHT22;29197;44.788;10.366;2023-05-17T15:29:28;17.60;99.90
43607;DHT22;29197;44.788;10.366;2023-05-17T15:32:17;17.60;99.90
43607;DHT22;29197;44.788;10.366;2023-05-17T15:35:07;17.50;99.90
43607;DHT22;29197;44.788;10.366;2023-05-17T15:37:57;17.60;99.90
43607;DHT22;29197;44.788;10.366;2023-05-17T15:40:46;18.00;99.90
43607;DHT22;29197;44.788;10.366;2023-05-17T15:43:35;17.60;99.90
43607;DHT22;29197;44.788;10.366;2023-05-17T15:46:23;17.60;99.90
43607;DHT22;29197;44.788;10.366;2023-05-17T15:49:12;17.60;99.90
43607;DHT22;29197;44.788;10.366;2023-05-17T15:52:00;17.60;99.90
43607;DHT22;29197;44.788;10.366;2023-05-17T15:54:50;17.60;99.90
43607;DHT22;29197;44.788;10.366;2023-05-17T15:57:40;17.80;99.90
43607;DHT22;29197;44.788;10.366;2023-05-17T16:00:28;17.50;99.90
43607;DHT22;29197;44.788;10.366;2023-05-17T16:03:17;17.50;99.90
43607;DHT22;29197;44.788;10.366;2023-05-17T16:06:06;17.30;99.90
43607;DHT22;29197;44.788;10.366;2023-05-17T16:08:55;17.20;99.90
43607;DHT22;29197;44.788;10.366;2023-05-17T16:11:44;17.20;99.90
43607;DHT22;29197;44.788;10.366;2023-05-17T16:14:33;17.20;99.90
43607;DHT22;29197;44.788;10.366;2023-05-17T16:17:22;17.20;99.90
43607;DHT22;29197;44.788;10.366;2023-05-17T16:20:11;17.30;99.90
43607;DHT22;29197;44.788;10.366;2023-05-17T16:23:00;17.30;99.90
43607;DHT22;29197;44.788;10.366;2023-05-17T16:25:48;17.20;99.90
43607;DHT22;29197;44.788;10.366;2023-05-17T16:28:39;17.30;99.90
43607;DHT22;29197;44.788;10.366;2023-05-17T16:31:27;16.40;99.90
43607;DHT22;29197;44.788;10.366;2023-05-17T16:34:16;17.20;99.90
43607;DHT22;29197;44.788;10.366;2023-05-17T16:37:05;17.20;99.90
43607;DHT22;29197;44.788;10.366;2023-05-17T16:39:53;17.10;99.90
43607;DHT22;29197;44.788;10.366;2023-05-17T16:42:42;17.10;99.90
43607;DHT22;29197;44.788;10.366;2023-05-17T16:45:32;17.10;99.90
43607;DHT22;29197;44.788;10.366;2023-05-17T16:48:20;17.10;99.90
43607;DHT22;29197;44.788;10.366;2023-05-17T16:51:09;17.10;99.90
43607;DHT22;29197;44.788;10.366;2023-05-17T16:53:57;17.20;99.90
43607;DHT22;29197;44.788;10.366;2023-05-17T16:56:46;16.50;99.90
43607;DHT22;29197;44.788;10.366;2023-05-17T17:02:25;17.20;99.90
43607;DHT22;29197;44.788;10.366;2023-05-17T17:05:14;17.30;99.90
43607;DHT22;29197;44.788;10.366;2023-05-17T17:08:02;17.10;99.90
43607;DHT22;29197;44.788;10.366;2023-05-17T17:10:51;17.10;99.90
43607;DHT22;29197;44.788;10.366;2023-05-17T17:13:39;17.10;99.90
43607;DHT22;29197;44.788;10.366;2023-05-17T17:16:28;17.20;99.90
43607;DHT22;29197;44.788;10.366;2023-05-17T17:19:18;17.20;99.90
43607;DHT22;29197;44.788;10.366;2023-05-17T17:22:08;17.20;99.90
43607;DHT22;29197;44.788;10.366;2023-05-17T17:27:46;17.20;99.90
43607;DHT22;29197;44.788;10.366;2023-05-17T17:30:37;17.20;99.90
43607;DHT22;29197;44.788;10.366;2023-05-17T17:33:25;17.20;99.90
43607;DHT22;29197;44.788;10.366;2023-05-17T17:36:15;17.10;99.90
43607;DHT22;29197;44.788;10.366;2023-05-17T17:39:04;17.00;99.90
43607;DHT22;29197;44.788;10.366;2023-05-17T17:41:52;17.00;99.90
43607;DHT22;29197;44.788;10.366;2023-05-17T17:44:41;17.20;99.90
43607;DHT22;29197;44.788;10.366;2023-05-17T17:47:29;17.00;99.90
43607;DHT22;29197;44.788;10.366;2023-05-17T17:50:18;17.00;99.90
43607;DHT22;29197;44.788;10.366;2023-05-17T17:53:08;17.00;99.90
43607;DHT22;29197;44.788;10.366;2023-05-17T17:55:56;17.10;99.90
43607;DHT22;29197;44.788;10.366;2023-05-17T17:58:45;17.10;99.90
43607;DHT22;29197;44.788;10.366;2023-05-17T18:04:23;17.10;99.90
43607;DHT22;29197;44.788;10.366;2023-05-17T18:07:12;17.00;99.90
43607;DHT22;29197;44.788;10.366;2023-05-17T18:10:05;16.90;99.90
43607;DHT22;29197;44.788;10.366;2023-05-17T18:12:54;16.90;99.90
43607;DHT22;29197;44.788;10.366;2023-05-17T18:24:09;16.60;99.90
43607;DHT22;29197;44.788;10.366;2023-05-17T18:27:00;16.70;99.90
43607;DHT22;29197;44.788;10.366;2023-05-17T18:29:49;16.80;99.90
43607;DHT22;29197;44.788;10.366;2023-05-17T18:32:37;16.80;99.90
43607;DHT22;29197;44.788;10.366;2023-05-17T18:35:26;16.80;99.90
43607;DHT22;29197;44.788;10.366;2023-05-17T18:38:14;16.90;99.90
43607;DHT22;29197;44.788;10.366;2023-05-17T18:41:03;17.00;99.90
43607;DHT22;29197;44.788;10.366;2023-05-17T18:43:53;16.90;99.90
43607;DHT22;29197;44.788;10.366;2023-05-17T18:46:43;16.90;99.90
43607;DHT22;29197;44.788;10.366;2023-05-17T18:49:31;16.80;99.90
43607;DHT22;29197;44.788;10.366;2023-05-17T18:52:20;16.80;99.90
43607;DHT22;29197;44.788;10.366;2023-05-17T18:55:09;16.80;99.90
43607;DHT22;29197;44.788;10.366;2023-05-17T19:00:48;16.60;99.90
43607;DHT22;29197;44.788;10.366;2023-05-17T19:03:37;16.60;99.90
43607;DHT22;29197;44.788;10.366;2023-05-17T19:06:25;16.60;99.90
43607;DHT22;29197;44.788;10.366;2023-05-17T19:09:14;16.70;99.90
43607;DHT22;29197;44.788;10.366;2023-05-17T19:12:04;16.70;99.90
43607;DHT22;29197;44.788;10.366;2023-05-17T19:14:52;16.60;99.90
43607;DHT22;29197;44.788;10.366;2023-05-17T19:17:42;16.60;99.90
43607;DHT22;29197;44.788;10.366;2023-05-17T19:20:32;16.60;99.90
43607;DHT22;29197;44.788;10.366;2023-05-17T19:23:20;16.60;99.90
43607;DHT22;29197;44.788;10.366;2023-05-17T19:26:09;16.70;99.90
43607;DHT22;29197;44.788;10.366;2023-05-17T19:28:58;16.70;99.90
43607;DHT22;29197;44.788;10.366;2023-05-17T19:31:46;16.70;99.90
43607;DHT22;29197;44.788;10.366;2023-05-17T19:34:36;16.80;99.90
43607;DHT22;29197;44.788;10.366;2023-05-17T19:37:25;16.80;99.90
43607;DHT22;29197;44.788;10.366;2023-05-17T19:40:14;16.80;99.90
43607;DHT22;29197;44.788;10.366;2023-05-17T19:43:05;16.80;99.90
43607;DHT22;29197;44.788;10.366;2023-05-17T19:45:54;16.80;99.90
43607;DHT22;29197;44.788;10.366;2023-05-17T19:48:45;16.80;99.90
43607;DHT22;29197;44.788;10.366;2023-05-17T19:51:36;16.50;99.90
43607;DHT22;29197;44.788;10.366;2023-05-17T19:54:26;16.80;99.90
43607;DHT22;29197;44.788;10.366;2023-05-17T19:57:15;16.70;99.90
43607;DHT22;29197;44.788;10.366;2023-05-17T20:00:06;16.70;99.90
43607;DHT22;29197;44.788;10.366;2023-05-17T20:02:54;16.70;99.90
43607;DHT22;29197;44.788;10.366;2023-05-17T20:05:44;16.60;99.90
43607;DHT22;29197;44.788;10.366;2023-05-17T20:08:36;16.60;99.90
43607;DHT22;29197;44.788;10.366;2023-05-17T20:11:26;16.60;99.90
43607;DHT22;29197;44.788;10.366;2023-05-17T20:14:15;16.60;99.90
43607;DHT22;29197;44.788;10.366;2023-05-17T20:17:05;16.60;99.90
43607;DHT22;29197;44.788;10.366;2023-05-17T20:19:54;16.60;99.90
43607;DHT22;29197;44.788;10.366;2023-05-17T20:22:44;16.60;99.90
